Time;durP1;ratioP1;P1;durP2;ratioP2;P2;SDS_P1;SDS_P2;PMS_P1;PMS_P2;Temp;Humidity;BMP_temperature;BMP_pressure;BME280_temperature;BME280_humidity;BME280_pressure;Samples;Min_cycle;Max_cycle;Signal;HPM_P1;HPM_P2
2024/03/16 00:00:32;;;;;;;18.40;3.47;;;;;;;;;;5058557;28;20196;-72
2024/03/16 00:02:59;;;;;;;16.88;3.40;;;;;;;;;;5063333;28;20189;-72
2024/03/16 00:05:25;;;;;;;17.48;3.83;;;;;;;;;;5063041;28;20644;-72
2024/03/16 00:07:50;;;;;;;20.65;4.15;;;;;;;;;;5043022;28;20196;-72
2024/03/16 00:10:16;;;;;;;13.38;3.75;;;;;;;;;;5054783;28;20200;-72
2024/03/16 00:12:41;;;;;;;19.65;3.55;;;;;;;;;;5069383;28;20184;-72
2024/03/16 00:15:07;;;;;;;17.00;3.45;;;;;;;;;;5062758;28;20656;-72
2024/03/16 00:17:32;;;;;;;14.95;3.47;;;;;;;;;;5067822;28;20217;-72
2024/03/16 00:19:58;;;;;;;14.40;3.05;;;;;;;;;;5062630;28;20202;-72
2024/03/16 00:22:24;;;;;;;16.55;2.97;;;;;;;;;;5065990;28;20190;-72
2024/03/16 00:24:49;;;;;;;17.60;3.25;;;;;;;;;;5068189;28;20195;-72
2024/03/16 00:27:15;;;;;;;15.15;2.65;;;;;;;;;;5070577;28;20322;-72
2024/03/16 00:29:40;;;;;;;23.65;3.28;;;;;;;;;;5054404;28;20273;-72
2024/03/16 00:32:06;;;;;;;11.93;2.85;;;;;;;;;;5035374;28;20205;-72
2024/03/16 00:34:32;;;;;;;17.08;3.30;;;;;;;;;;5078788;28;20195;-72
2024/03/16 00:37:02;;;;;;;19.63;3.17;;;;;;;;;;5071219;28;20229;-72
2024/03/16 00:39:27;;;;;;;17.98;3.25;;;;;;;;;;5085643;28;20188;-72
2024/03/16 00:41:53;;;;;;;19.88;3.38;;;;;;;;;;5073008;28;20590;-72
2024/03/16 00:44:19;;;;;;;17.40;3.45;;;;;;;;;;5080978;28;20562;-72
2024/03/16 00:46:45;;;;;;;14.65;2.95;;;;;;;;;;5064627;28;20190;-72
2024/03/16 00:49:10;;;;;;;20.17;3.58;;;;;;;;;;5080707;28;20184;-72
2024/03/16 00:51:36;;;;;;;18.42;3.60;;;;;;;;;;5077424;28;20204;-72
2024/03/16 00:54:01;;;;;;;13.82;2.80;;;;;;;;;;5082062;28;20545;-72
2024/03/16 00:56:27;;;;;;;14.35;3.17;;;;;;;;;;5077053;28;20200;-72
2024/03/16 00:58:52;;;;;;;16.38;3.22;;;;;;;;;;5070962;28;20219;-72
2024/03/16 01:01:18;;;;;;;15.48;3.10;;;;;;;;;;5074339;28;20620;-72
2024/03/16 01:03:43;;;;;;;14.93;2.90;;;;;;;;;;5072727;28;20200;-72
2024/03/16 01:06:09;;;;;;;14.35;3.28;;;;;;;;;;5080342;28;20628;-72
2024/03/16 01:08:35;;;;;;;20.30;3.80;;;;;;;;;;5082597;28;20184;-72
2024/03/16 01:11:00;;;;;;;17.65;3.53;;;;;;;;;;5083181;28;20242;-72
2024/03/16 01:13:25;;;;;;;16.23;3.28;;;;;;;;;;5078657;28;20493;-72
2024/03/16 01:15:51;;;;;;;18.13;3.22;;;;;;;;;;5076355;28;20263;-72
2024/03/16 01:18:17;;;;;;;15.77;3.40;;;;;;;;;;5066889;28;20200;-72
2024/03/16 01:20:44;;;;;;;15.40;2.92;;;;;;;;;;5063797;28;20193;-72
2024/03/16 01:23:10;;;;;;;15.88;3.92;;;;;;;;;;5068482;28;20283;-72
2024/03/16 01:25:35;;;;;;;15.85;3.88;;;;;;;;;;5063716;28;20319;-72
2024/03/16 01:28:00;;;;;;;16.42;3.45;;;;;;;;;;5067453;28;20189;-72
2024/03/16 01:30:26;;;;;;;11.43;3.42;;;;;;;;;;5069236;28;20295;-72
2024/03/16 01:32:51;;;;;;;16.75;3.55;;;;;;;;;;5062974;28;20192;-72
2024/03/16 01:35:17;;;;;;;16.92;4.25;;;;;;;;;;5066658;28;20725;-73
2024/03/16 01:37:42;;;;;;;15.98;4.03;;;;;;;;;;5058940;28;20191;-74
2024/03/16 01:40:09;;;;;;;23.60;4.13;;;;;;;;;;5070070;28;20279;-75
2024/03/16 01:42:34;;;;;;;19.83;4.07;;;;;;;;;;5070470;28;20180;-76
2024/03/16 01:45:14;;;;;;;24.50;4.53;;;;;;;;;;5061072;28;20274;-76
2024/03/16 01:47:40;;;;;;;19.00;4.18;;;;;;;;;;5063166;28;20256;-76
2024/03/16 01:50:07;;;;;;;19.05;4.32;;;;;;;;;;5061900;28;20742;-76
2024/03/16 01:52:32;;;;;;;27.95;5.35;;;;;;;;;;5060499;28;20669;-76
2024/03/16 01:54:58;;;;;;;25.92;5.05;;;;;;;;;;5060329;28;20189;-76
2024/03/16 01:57:24;;;;;;;28.67;5.00;;;;;;;;;;5068046;28;20658;-75
2024/03/16 01:59:49;;;;;;;19.90;5.53;;;;;;;;;;5069962;28;20188;-76
2024/03/16 02:02:32;;;;;;;23.30;5.53;;;;;;;;;;5066233;28;20271;-75
2024/03/16 02:04:57;;;;;;;20.73;5.45;;;;;;;;;;5061493;28;20213;-76
2024/03/16 02:07:23;;;;;;;27.92;5.95;;;;;;;;;;5058643;28;20625;-76
2024/03/16 02:09:48;;;;;;;29.55;6.75;;;;;;;;;;5069041;28;20334;-76
2024/03/16 02:12:13;;;;;;;33.42;6.70;;;;;;;;;;5068148;28;20236;-76
2024/03/16 02:14:39;;;;;;;31.95;6.72;;;;;;;;;;5060193;28;20720;-75
2024/03/16 02:17:04;;;;;;;32.28;6.75;;;;;;;;;;5063854;28;20744;-75
2024/03/16 02:19:31;;;;;;;31.58;7.30;;;;;;;;;;5064408;28;20200;-75
2024/03/16 02:21:57;;;;;;;25.95;7.45;;;;;;;;;;5071848;28;20194;-75
2024/03/16 02:24:23;;;;;;;27.45;7.85;;;;;;;;;;5068640;28;20271;-75
2024/03/16 02:26:49;;;;;;;25.38;8.20;;;;;;;;;;5063834;28;20289;-75
2024/03/16 02:29:14;;;;;;;23.65;8.18;;;;;;;;;;5058649;28;20348;-74
2024/03/16 02:31:41;;;;;;;33.75;8.70;;;;;;;;;;5068063;28;20660;-74
2024/03/16 02:34:07;;;;;;;28.80;8.15;;;;;;;;;;5065574;28;20243;-74
2024/03/16 02:36:32;;;;;;;27.98;9.23;;;;;;;;;;5056726;28;20688;-74
2024/03/16 02:38:58;;;;;;;27.95;9.50;;;;;;;;;;5065641;28;20280;-74
2024/03/16 02:41:25;;;;;;;31.48;8.88;;;;;;;;;;5054751;28;20181;-75
2024/03/16 02:43:50;;;;;;;28.48;9.80;;;;;;;;;;5069849;28;20668;-74
2024/03/16 02:46:16;;;;;;;33.05;9.63;;;;;;;;;;5068329;28;20275;-74
2024/03/16 02:48:41;;;;;;;33.47;10.43;;;;;;;;;;5066928;28;20182;-74
2024/03/16 02:51:07;;;;;;;36.80;10.60;;;;;;;;;;5053641;28;20210;-74
2024/03/16 02:53:34;;;;;;;32.97;10.35;;;;;;;;;;5058002;28;20189;-73
2024/03/16 02:56:00;;;;;;;29.50;10.60;;;;;;;;;;5060491;28;20560;-73
2024/03/16 02:58:25;;;;;;;25.27;10.45;;;;;;;;;;5063588;28;20185;-73
2024/03/16 03:00:51;;;;;;;33.80;11.40;;;;;;;;;;5063426;28;20265;-73
2024/03/16 03:03:16;;;;;;;27.88;11.43;;;;;;;;;;5052501;28;20197;-73
2024/03/16 03:05:42;;;;;;;30.40;12.25;;;;;;;;;;5053274;28;20327;-73
2024/03/16 03:08:07;;;;;;;34.72;11.80;;;;;;;;;;5054543;28;20268;-72
2024/03/16 03:10:33;;;;;;;36.63;12.68;;;;;;;;;;5062499;28;20619;-72
2024/03/16 03:12:58;;;;;;;36.58;11.93;;;;;;;;;;5056956;28;20265;-73
2024/03/16 03:15:23;;;;;;;41.35;13.05;;;;;;;;;;5056503;28;20178;-73
2024/03/16 03:17:49;;;;;;;34.45;12.38;;;;;;;;;;5064798;28;20381;-73
2024/03/16 03:20:14;;;;;;;32.92;12.00;;;;;;;;;;5073056;28;20205;-73
2024/03/16 03:22:40;;;;;;;33.30;12.77;;;;;;;;;;5063691;28;20189;-73
2024/03/16 03:25:06;;;;;;;30.20;12.32;;;;;;;;;;5063448;28;20264;-74
2024/03/16 03:27:31;;;;;;;28.00;11.27;;;;;;;;;;5064212;28;20204;-73
2024/03/16 03:29:57;;;;;;;31.80;11.75;;;;;;;;;;5058291;28;20610;-72
2024/03/16 03:32:22;;;;;;;29.95;10.95;;;;;;;;;;5061457;28;20618;-73
2024/03/16 03:34:48;;;;;;;31.70;11.48;;;;;;;;;;5062382;28;20224;-75
2024/03/16 03:37:14;;;;;;;29.13;11.40;;;;;;;;;;5049938;28;20310;-75
2024/03/16 03:39:40;;;;;;;29.40;10.30;;;;;;;;;;5054445;28;20268;-76
2024/03/16 03:42:05;;;;;;;27.83;9.50;;;;;;;;;;5039976;28;20208;-76
2024/03/16 03:44:38;;;;;;;31.27;9.77;;;;;;;;;;5056126;28;20544;-76
2024/03/16 03:47:04;;;;;;;21.63;8.52;;;;;;;;;;5068375;28;20228;-77
2024/03/16 03:49:32;;;;;;;15.68;5.65;;;;;;;;;;5061333;28;20219;-76
2024/03/16 03:51:58;;;;;;;11.25;5.30;;;;;;;;;;5064320;28;20291;-76
2024/03/16 03:54:24;;;;;;;13.27;4.97;;;;;;;;;;5060002;28;20296;-76
2024/03/16 03:56:50;;;;;;;14.02;5.88;;;;;;;;;;5065371;28;20189;-75
2024/03/16 03:59:15;;;;;;;11.20;4.05;;;;;;;;;;5075468;28;20566;-75
2024/03/16 04:01:41;;;;;;;8.32;3.38;;;;;;;;;;5067082;28;20507;-76
2024/03/16 04:04:06;;;;;;;6.32;2.88;;;;;;;;;;5070460;28;20181;-75
2024/03/16 04:06:31;;;;;;;8.70;3.30;;;;;;;;;;5064630;28;20184;-75
2024/03/16 04:08:57;;;;;;;10.95;3.05;;;;;;;;;;5069562;28;20192;-76
2024/03/16 04:11:23;;;;;;;8.25;2.97;;;;;;;;;;5080229;28;20361;-76
2024/03/16 04:13:48;;;;;;;6.00;2.22;;;;;;;;;;5072699;28;20188;-75
2024/03/16 04:16:14;;;;;;;7.47;2.30;;;;;;;;;;5048619;28;20552;-76
2024/03/16 04:18:40;;;;;;;5.32;2.25;;;;;;;;;;5058753;28;20599;-76
2024/03/16 04:21:06;;;;;;;4.22;1.95;;;;;;;;;;5070172;28;20181;-75
2024/03/16 04:23:32;;;;;;;5.78;2.50;;;;;;;;;;5067538;28;20196;-76
2024/03/16 04:25:58;;;;;;;5.55;2.08;;;;;;;;;;5060701;28;20238;-76
2024/03/16 04:28:23;;;;;;;9.00;2.45;;;;;;;;;;5065685;28;20198;-75
2024/03/16 04:30:49;;;;;;;4.57;1.80;;;;;;;;;;5059180;28;20307;-75
2024/03/16 04:33:15;;;;;;;5.68;1.85;;;;;;;;;;5068125;28;20215;-76
2024/03/16 04:35:41;;;;;;;5.22;1.75;;;;;;;;;;5060729;28;20742;-76
2024/03/16 04:38:09;;;;;;;6.15;1.85;;;;;;;;;;5069673;28;20224;-75
2024/03/16 04:40:35;;;;;;;9.48;2.10;;;;;;;;;;5068055;28;20181;-75
2024/03/16 04:43:00;;;;;;;5.45;1.70;;;;;;;;;;5070550;28;20559;-76
2024/03/16 04:45:26;;;;;;;4.90;2.00;;;;;;;;;;5042000;28;20182;-76
2024/03/16 04:47:52;;;;;;;8.52;1.63;;;;;;;;;;5060139;28;20624;-76
2024/03/16 04:50:17;;;;;;;4.60;1.80;;;;;;;;;;5069664;28;20214;-75
2024/03/16 04:52:42;;;;;;;5.28;1.90;;;;;;;;;;5076907;28;20224;-75
2024/03/16 04:55:08;;;;;;;8.60;2.05;;;;;;;;;;5068571;28;20188;-74
2024/03/16 04:57:33;;;;;;;7.63;1.90;;;;;;;;;;5060772;28;20479;-75
2024/03/16 04:59:59;;;;;;;7.00;1.77;;;;;;;;;;5057841;28;20193;-75
2024/03/16 05:02:24;;;;;;;6.55;2.08;;;;;;;;;;5072852;28;20930;-74
2024/03/16 05:04:49;;;;;;;10.73;1.95;;;;;;;;;;5062394;28;20215;-73
2024/03/16 05:07:15;;;;;;;11.90;1.98;;;;;;;;;;5039810;28;20238;-73
2024/03/16 05:09:40;;;;;;;6.85;2.60;;;;;;;;;;5037861;28;20213;-73
2024/03/16 05:12:06;;;;;;;8.18;2.05;;;;;;;;;;5082734;28;20296;-72
2024/03/16 05:14:31;;;;;;;6.57;2.20;;;;;;;;;;5050249;28;20200;-72
2024/03/16 05:16:57;;;;;;;7.03;1.98;;;;;;;;;;5067101;28;20188;-73
2024/03/16 05:19:22;;;;;;;3.53;1.40;;;;;;;;;;5049408;28;20392;-73
2024/03/16 05:21:48;;;;;;;6.68;2.10;;;;;;;;;;5070162;28;20504;-72
2024/03/16 05:24:13;;;;;;;10.02;2.03;;;;;;;;;;5053981;28;20184;-72
2024/03/16 05:26:39;;;;;;;5.25;1.60;;;;;;;;;;5064500;28;20280;-73
2024/03/16 05:29:05;;;;;;;9.23;1.70;;;;;;;;;;5070421;28;20188;-73
2024/03/16 05:31:32;;;;;;;5.93;2.67;;;;;;;;;;5068817;28;20299;-72
2024/03/16 05:33:58;;;;;;;9.48;1.67;;;;;;;;;;5069879;28;20199;-73
2024/03/16 05:36:23;;;;;;;7.05;1.52;;;;;;;;;;5070051;28;20586;-73
2024/03/16 05:38:49;;;;;;;8.30;1.88;;;;;;;;;;5064309;28;20273;-74
2024/03/16 05:41:15;;;;;;;13.30;2.17;;;;;;;;;;5065171;28;20192;-74
2024/03/16 05:43:43;;;;;;;10.40;2.20;;;;;;;;;;5067198;28;20205;-74
2024/03/16 05:46:09;;;;;;;8.43;1.73;;;;;;;;;;5062366;28;20207;-74
2024/03/16 05:48:34;;;;;;;9.32;2.17;;;;;;;;;;5064650;28;20593;-74
2024/03/16 05:51:01;;;;;;;8.48;1.80;;;;;;;;;;5060473;28;20212;-73
2024/03/16 05:53:27;;;;;;;6.63;1.92;;;;;;;;;;5048894;28;20274;-72
2024/03/16 05:55:52;;;;;;;6.30;1.50;;;;;;;;;;5053604;28;20185;-73
2024/03/16 05:58:20;;;;;;;6.88;1.40;;;;;;;;;;5060324;28;20705;-72
2024/03/16 06:00:45;;;;;;;8.38;1.55;;;;;;;;;;5068165;28;20221;-72
2024/03/16 06:03:11;;;;;;;13.70;2.38;;;;;;;;;;5065886;28;20203;-73
2024/03/16 06:05:36;;;;;;;9.52;1.45;;;;;;;;;;5057931;28;20679;-72
2024/03/16 06:08:04;;;;;;;9.85;1.13;;;;;;;;;;5060219;28;20806;-72
2024/03/16 06:10:30;;;;;;;9.93;1.85;;;;;;;;;;5066692;28;20199;-73
2024/03/16 06:12:55;;;;;;;5.35;1.40;;;;;;;;;;5056198;28;20177;-73
2024/03/16 06:15:21;;;;;;;12.02;1.73;;;;;;;;;;5073713;28;20551;-73
2024/03/16 06:17:46;;;;;;;9.63;1.60;;;;;;;;;;5068228;28;20208;-73
2024/03/16 06:20:15;;;;;;;14.38;2.63;;;;;;;;;;5068429;28;20232;-73
2024/03/16 06:22:41;;;;;;;16.10;2.05;;;;;;;;;;5066041;28;20181;-73
2024/03/16 06:25:08;;;;;;;8.93;1.80;;;;;;;;;;5068516;28;20252;-73
2024/03/16 06:27:40;;;;;;;12.20;1.92;;;;;;;;;;5038880;28;20189;-73
2024/03/16 06:30:07;;;;;;;10.25;1.83;;;;;;;;;;5066700;28;20189;-73
2024/03/16 06:32:38;;;;;;;12.65;2.00;;;;;;;;;;5056371;28;20239;-72
2024/03/16 06:35:07;;;;;;;20.48;1.77;;;;;;;;;;5064591;28;20205;-73
2024/03/16 06:37:32;;;;;;;15.88;3.00;;;;;;;;;;5053925;28;20514;-74
2024/03/16 06:39:57;;;;;;;11.93;2.00;;;;;;;;;;5062827;28;20250;-73
2024/03/16 06:42:23;;;;;;;11.43;2.03;;;;;;;;;;5060775;28;20242;-74
2024/03/16 06:44:49;;;;;;;14.43;2.47;;;;;;;;;;5068592;28;20288;-73
2024/03/16 06:47:14;;;;;;;12.95;3.10;;;;;;;;;;5070652;28;20272;-72
2024/03/16 06:49:40;;;;;;;12.52;1.90;;;;;;;;;;5068874;28;20185;-71
2024/03/16 06:52:05;;;;;;;11.68;2.05;;;;;;;;;;5066482;28;20239;-72
2024/03/16 06:54:31;;;;;;;12.60;2.28;;;;;;;;;;5061486;28;20237;-73
2024/03/16 06:56:56;;;;;;;16.20;1.67;;;;;;;;;;5068945;28;20203;-74
2024/03/16 06:59:22;;;;;;;10.23;1.92;;;;;;;;;;5066292;28;20209;-72
2024/03/16 07:01:47;;;;;;;10.30;1.90;;;;;;;;;;5071751;28;20600;-72
2024/03/16 07:04:15;;;;;;;9.07;1.58;;;;;;;;;;5070533;28;20181;-72
2024/03/16 07:06:40;;;;;;;9.18;1.77;;;;;;;;;;5079839;28;20187;-73
2024/03/16 07:09:08;;;;;;;12.40;2.00;;;;;;;;;;5076841;28;20368;-72
2024/03/16 07:11:34;;;;;;;12.70;1.92;;;;;;;;;;5067604;28;20205;-72
2024/03/16 07:13:59;;;;;;;11.40;1.80;;;;;;;;;;5070399;28;20632;-72
2024/03/16 07:16:25;;;;;;;12.98;2.28;;;;;;;;;;5082028;28;20184;-72
2024/03/16 07:18:50;;;;;;;9.25;1.42;;;;;;;;;;5065411;28;20310;-72
2024/03/16 07:21:19;;;;;;;10.77;2.30;;;;;;;;;;5064202;28;20641;-73
2024/03/16 07:23:47;;;;;;;10.35;1.55;;;;;;;;;;5054725;28;20228;-72
2024/03/16 07:26:13;;;;;;;10.43;2.42;;;;;;;;;;5061049;28;20193;-72
2024/03/16 07:28:39;;;;;;;7.53;1.50;;;;;;;;;;5055581;28;20188;-72
2024/03/16 07:31:04;;;;;;;9.25;2.10;;;;;;;;;;5066238;28;20217;-73
2024/03/16 07:33:30;;;;;;;7.40;1.70;;;;;;;;;;5065155;28;20513;-73
2024/03/16 07:35:55;;;;;;;10.93;1.42;;;;;;;;;;5067263;28;20243;-72
2024/03/16 07:38:21;;;;;;;7.32;1.80;;;;;;;;;;5065177;28;20189;-73
2024/03/16 07:40:46;;;;;;;8.18;1.88;;;;;;;;;;5063150;28;20192;-73
2024/03/16 07:43:13;;;;;;;10.45;1.60;;;;;;;;;;5069213;28;20216;-73
2024/03/16 07:45:42;;;;;;;8.00;1.70;;;;;;;;;;5054190;28;20215;-73
2024/03/16 07:48:08;;;;;;;10.82;1.60;;;;;;;;;;5064395;28;20601;-73
2024/03/16 07:50:35;;;;;;;7.63;1.50;;;;;;;;;;5059697;28;20255;-72
2024/03/16 07:53:01;;;;;;;9.50;1.45;;;;;;;;;;5065332;28;20193;-72
2024/03/16 07:55:27;;;;;;;8.32;1.73;;;;;;;;;;5055620;28;20192;-72
2024/03/16 07:57:52;;;;;;;9.23;1.60;;;;;;;;;;5056588;28;20189;-72
2024/03/16 08:00:18;;;;;;;9.13;1.60;;;;;;;;;;5059386;28;20201;-72
2024/03/16 08:02:43;;;;;;;10.63;2.55;;;;;;;;;;5054349;28;20192;-72
2024/03/16 08:05:11;;;;;;;11.57;1.75;;;;;;;;;;5068571;28;20339;-72
2024/03/16 08:07:39;;;;;;;10.50;1.80;;;;;;;;;;5060825;28;20185;-72
2024/03/16 08:10:05;;;;;;;6.90;1.67;;;;;;;;;;5062759;28;20291;-71
2024/03/16 08:12:30;;;;;;;8.25;1.63;;;;;;;;;;5067417;28;20324;-72
2024/03/16 08:14:56;;;;;;;10.88;1.75;;;;;;;;;;5068638;28;20216;-71
2024/03/16 08:17:22;;;;;;;13.18;2.78;;;;;;;;;;5049528;28;20210;-73
2024/03/16 08:19:48;;;;;;;10.65;2.20;;;;;;;;;;5066922;28;20220;-72
2024/03/16 08:22:13;;;;;;;10.77;1.77;;;;;;;;;;5064253;28;20259;-73
2024/03/16 08:24:39;;;;;;;5.88;1.67;;;;;;;;;;5066962;28;20260;-73
2024/03/16 08:27:04;;;;;;;9.38;1.70;;;;;;;;;;5067387;28;20196;-71
2024/03/16 08:29:30;;;;;;;11.25;1.98;;;;;;;;;;5074650;28;20203;-71
2024/03/16 08:31:55;;;;;;;11.02;1.80;;;;;;;;;;5070406;28;20224;-71
2024/03/16 08:34:21;;;;;;;9.80;1.83;;;;;;;;;;5074358;28;20188;-71
2024/03/16 08:36:46;;;;;;;8.15;1.77;;;;;;;;;;5078154;28;20236;-71
2024/03/16 08:39:12;;;;;;;13.60;2.92;;;;;;;;;;5079764;28;20202;-70
2024/03/16 08:41:37;;;;;;;12.55;1.90;;;;;;;;;;5073987;28;20223;-71
2024/03/16 08:44:04;;;;;;;7.03;1.60;;;;;;;;;;5067046;28;20184;-72
2024/03/16 08:46:30;;;;;;;9.00;1.90;;;;;;;;;;5076108;28;20203;-71
2024/03/16 08:48:55;;;;;;;8.70;1.75;;;;;;;;;;5074448;28;20560;-71
2024/03/16 08:51:21;;;;;;;6.63;1.80;;;;;;;;;;5072901;28;20231;-70
2024/03/16 08:53:46;;;;;;;5.78;1.70;;;;;;;;;;5074358;28;20596;-70
2024/03/16 08:56:11;;;;;;;10.27;1.98;;;;;;;;;;5071732;28;20670;-71
2024/03/16 08:58:37;;;;;;;9.48;1.85;;;;;;;;;;5059938;28;20277;-70
2024/03/16 09:01:02;;;;;;;10.20;1.70;;;;;;;;;;5066991;28;20317;-71
2024/03/16 09:03:28;;;;;;;9.02;2.05;;;;;;;;;;5069580;28;20180;-71
2024/03/16 09:05:53;;;;;;;9.30;1.98;;;;;;;;;;5064717;28;20713;-71
2024/03/16 09:08:19;;;;;;;8.88;1.55;;;;;;;;;;5069238;28;20707;-71
2024/03/16 09:10:44;;;;;;;9.15;1.52;;;;;;;;;;5039137;28;20185;-71
2024/03/16 09:13:10;;;;;;;6.93;2.20;;;;;;;;;;5062166;28;20288;-71
2024/03/16 09:15:36;;;;;;;8.10;1.50;;;;;;;;;;5057509;28;20289;-71
2024/03/16 09:18:02;;;;;;;8.70;1.45;;;;;;;;;;5067045;28;20275;-71
2024/03/16 09:20:28;;;;;;;6.20;1.65;;;;;;;;;;5059943;28;20198;-71
2024/03/16 09:22:56;;;;;;;5.13;1.13;;;;;;;;;;5057060;28;20369;-71
2024/03/16 09:25:21;;;;;;;6.85;1.25;;;;;;;;;;5066908;28;20219;-71
2024/03/16 09:27:46;;;;;;;11.55;1.98;;;;;;;;;;5065877;28;20552;-71
2024/03/16 09:30:14;;;;;;;6.78;1.02;;;;;;;;;;5062936;28;20247;-70
2024/03/16 09:32:39;;;;;;;8.02;1.30;;;;;;;;;;5064487;28;20209;-71
2024/03/16 09:35:10;;;;;;;8.32;1.70;;;;;;;;;;5061614;28;20193;-71
2024/03/16 09:37:36;;;;;;;6.38;0.90;;;;;;;;;;5066160;28;20232;-71
2024/03/16 09:40:09;;;;;;;7.18;0.90;;;;;;;;;;5064435;28;20189;-72
2024/03/16 09:42:36;;;;;;;4.57;0.98;;;;;;;;;;5058340;28;20243;-71
2024/03/16 09:45:06;;;;;;;8.30;1.10;;;;;;;;;;5052472;28;20189;-71
2024/03/16 09:47:32;;;;;;;8.07;1.08;;;;;;;;;;5057485;28;20189;-71
2024/03/16 09:49:58;;;;;;;7.68;0.82;;;;;;;;;;5068966;28;20253;-71
2024/03/16 09:52:29;;;;;;;7.30;1.10;;;;;;;;;;5066569;28;20688;-71
2024/03/16 09:54:54;;;;;;;6.18;1.20;;;;;;;;;;5065880;28;20182;-71
2024/03/16 09:57:21;;;;;;;8.52;1.52;;;;;;;;;;5063666;28;20193;-71
2024/03/16 09:59:48;;;;;;;5.95;1.30;;;;;;;;;;5055528;28;20182;-71
2024/03/16 10:02:19;;;;;;;8.15;1.20;;;;;;;;;;5061731;28;20770;-73
2024/03/16 10:04:48;;;;;;;10.40;1.40;;;;;;;;;;5063622;28;20640;-71
2024/03/16 10:07:15;;;;;;;8.32;1.40;;;;;;;;;;5068133;28;20532;-72
2024/03/16 10:10:00;;;;;;;6.95;1.50;;;;;;;;;;5070413;28;20188;-71
2024/03/16 10:12:27;;;;;;;7.57;1.05;;;;;;;;;;5062210;28;20217;-71
2024/03/16 10:15:09;;;;;;;6.13;1.00;;;;;;;;;;5062577;28;20185;-72
2024/03/16 10:17:38;;;;;;;5.68;1.10;;;;;;;;;;5038990;28;20192;-72
2024/03/16 10:20:15;;;;;;;7.68;1.38;;;;;;;;;;5059786;28;20208;-71
2024/03/16 10:22:45;;;;;;;8.27;1.30;;;;;;;;;;5059853;28;20541;-71
2024/03/16 10:25:11;;;;;;;8.57;1.10;;;;;;;;;;5067427;28;20845;-72
2024/03/16 10:27:38;;;;;;;4.43;1.02;;;;;;;;;;5059753;28;20667;-72
2024/03/16 10:30:11;;;;;;;5.88;1.10;;;;;;;;;;5060964;28;20230;-71
2024/03/16 10:32:41;;;;;;;5.70;1.05;;;;;;;;;;5057550;28;20228;-72
2024/03/16 10:35:14;;;;;;;7.38;1.30;;;;;;;;;;5060019;28;20199;-72
2024/03/16 10:37:40;;;;;;;4.75;1.00;;;;;;;;;;5065002;28;20200;-72
2024/03/16 10:40:16;;;;;;;8.48;1.33;;;;;;;;;;5065289;28;20275;-72
2024/03/16 10:42:46;;;;;;;8.77;1.15;;;;;;;;;;5059709;28;20192;-72
2024/03/16 10:45:14;;;;;;;6.75;1.27;;;;;;;;;;5058797;28;20599;-71
2024/03/16 10:47:42;;;;;;;7.55;1.30;;;;;;;;;;5053810;28;20600;-72
2024/03/16 10:50:10;;;;;;;7.45;1.15;;;;;;;;;;5064737;28;20192;-71
2024/03/16 10:52:39;;;;;;;6.85;1.20;;;;;;;;;;5069651;28;20220;-71
2024/03/16 10:55:10;;;;;;;6.10;1.42;;;;;;;;;;5060660;28;20185;-72
2024/03/16 10:57:38;;;;;;;9.55;1.30;;;;;;;;;;5055764;28;20197;-71
2024/03/16 11:00:23;;;;;;;4.65;1.02;;;;;;;;;;5062048;28;20276;-72
2024/03/16 11:02:55;;;;;;;12.38;1.23;;;;;;;;;;5060349;28;20540;-71
2024/03/16 11:05:45;;;;;;;6.95;1.90;;;;;;;;;;5064646;28;20636;-72
2024/03/16 11:08:13;;;;;;;7.93;1.38;;;;;;;;;;5048997;28;20657;-72
2024/03/16 11:10:39;;;;;;;6.40;1.70;;;;;;;;;;5056532;28;20196;-72
2024/03/16 11:13:17;;;;;;;7.28;1.55;;;;;;;;;;5055508;28;20354;-72
2024/03/16 11:15:44;;;;;;;5.72;1.00;;;;;;;;;;5066549;28;20189;-72
2024/03/16 11:18:21;;;;;;;3.97;0.70;;;;;;;;;;5061819;28;20246;-71
2024/03/16 11:20:50;;;;;;;9.88;1.27;;;;;;;;;;5067392;28;20196;-72
2024/03/16 11:23:23;;;;;;;2.95;0.90;;;;;;;;;;5081089;28;20186;-72
2024/03/16 11:25:49;;;;;;;6.80;1.08;;;;;;;;;;5064582;28;20268;-72
2024/03/16 11:28:15;;;;;;;7.95;1.27;;;;;;;;;;5066601;28;20617;-72
2024/03/16 11:30:41;;;;;;;6.88;1.63;;;;;;;;;;5067090;28;20547;-72
2024/03/16 11:33:14;;;;;;;7.80;1.27;;;;;;;;;;5070718;28;20251;-72
2024/03/16 11:35:40;;;;;;;4.85;1.27;;;;;;;;;;5061195;28;20734;-71
2024/03/16 11:38:15;;;;;;;6.32;0.80;;;;;;;;;;5062059;28;20190;-71
2024/03/16 11:40:43;;;;;;;10.75;1.33;;;;;;;;;;5064231;28;20188;-71
2024/03/16 11:43:10;;;;;;;6.70;1.02;;;;;;;;;;5066107;28;20579;-72
2024/03/16 11:45:37;;;;;;;4.80;0.80;;;;;;;;;;5060697;28;20185;-72
2024/03/16 11:48:05;;;;;;;5.63;0.75;;;;;;;;;;5053921;28;20200;-71
2024/03/16 11:50:34;;;;;;;9.75;1.63;;;;;;;;;;5061479;28;20216;-71
2024/03/16 11:53:00;;;;;;;3.50;0.95;;;;;;;;;;5057952;28;20261;-71
2024/03/16 11:55:29;;;;;;;2.97;0.60;;;;;;;;;;5062257;28;22651;-72
2024/03/16 11:58:00;;;;;;;5.22;0.75;;;;;;;;;;5065663;28;20640;-71
2024/03/16 12:00:28;;;;;;;4.45;0.90;;;;;;;;;;5062499;28;20203;-72
2024/03/16 12:02:54;;;;;;;4.47;0.70;;;;;;;;;;5069272;28;20184;-71
2024/03/16 12:05:20;;;;;;;7.13;0.70;;;;;;;;;;5065558;28;20219;-72
2024/03/16 12:07:48;;;;;;;8.70;1.10;;;;;;;;;;5058922;28;20621;-72
2024/03/16 12:10:14;;;;;;;6.15;1.00;;;;;;;;;;5064742;28;20176;-72
2024/03/16 12:12:43;;;;;;;5.05;0.80;;;;;;;;;;5061219;28;20209;-73
2024/03/16 12:15:19;;;;;;;6.47;1.27;;;;;;;;;;5068107;28;20296;-72
2024/03/16 12:17:47;;;;;;;7.60;1.08;;;;;;;;;;5065863;28;20220;-72
2024/03/16 12:20:16;;;;;;;5.65;1.08;;;;;;;;;;5067896;28;20258;-72
2024/03/16 12:22:45;;;;;;;3.90;0.90;;;;;;;;;;5081116;28;20188;-72
2024/03/16 12:25:11;;;;;;;6.63;0.88;;;;;;;;;;5082076;28;20681;-73
2024/03/16 12:27:49;;;;;;;8.98;2.03;;;;;;;;;;5062541;28;20189;-72
2024/03/16 12:30:15;;;;;;;7.15;1.20;;;;;;;;;;5065840;28;20570;-72
2024/03/16 12:32:41;;;;;;;5.63;0.57;;;;;;;;;;5060020;28;20216;-72
2024/03/16 12:35:09;;;;;;;7.35;1.08;;;;;;;;;;5069595;28;20683;-72
2024/03/16 12:37:36;;;;;;;6.72;1.33;;;;;;;;;;5054774;28;20624;-72
2024/03/16 12:40:01;;;;;;;4.90;0.82;;;;;;;;;;5068638;28;20185;-72
2024/03/16 12:42:27;;;;;;;5.20;0.80;;;;;;;;;;5057531;28;20207;-72
2024/03/16 12:44:53;;;;;;;2.40;0.68;;;;;;;;;;5047499;28;20206;-72
2024/03/16 12:47:18;;;;;;;5.63;0.90;;;;;;;;;;5036284;28;20188;-71
2024/03/16 12:49:44;;;;;;;4.18;0.85;;;;;;;;;;5059908;28;20204;-70
2024/03/16 12:52:13;;;;;;;6.60;0.93;;;;;;;;;;5059907;28;20535;-70
2024/03/16 12:54:38;;;;;;;7.20;1.00;;;;;;;;;;5065530;28;20181;-71
2024/03/16 12:57:04;;;;;;;6.75;0.90;;;;;;;;;;5058835;28;20200;-70
2024/03/16 12:59:30;;;;;;;5.97;0.77;;;;;;;;;;5057381;28;20189;-71
2024/03/16 13:01:55;;;;;;;5.30;0.85;;;;;;;;;;5061427;28;20193;-72
2024/03/16 13:04:21;;;;;;;7.00;0.80;;;;;;;;;;5070408;28;20185;-72
2024/03/16 13:06:47;;;;;;;6.43;0.82;;;;;;;;;;5080619;28;20192;-72
2024/03/16 13:09:16;;;;;;;5.65;0.95;;;;;;;;;;5069375;28;20197;-71
2024/03/16 13:11:41;;;;;;;4.30;0.80;;;;;;;;;;5039067;28;20201;-71
2024/03/16 13:14:07;;;;;;;2.65;0.80;;;;;;;;;;5058606;28;20424;-71
2024/03/16 13:16:33;;;;;;;3.58;0.75;;;;;;;;;;5059552;28;20188;-71
2024/03/16 13:18:59;;;;;;;4.82;0.85;;;;;;;;;;5064779;28;20212;-72
2024/03/16 13:21:24;;;;;;;3.25;0.70;;;;;;;;;;5063733;28;20173;-72
2024/03/16 13:23:50;;;;;;;3.85;0.70;;;;;;;;;;5064861;28;20597;-72
2024/03/16 13:26:16;;;;;;;4.10;0.60;;;;;;;;;;5061711;28;20345;-72
2024/03/16 13:28:41;;;;;;;6.07;0.82;;;;;;;;;;5062928;28;20185;-71
2024/03/16 13:31:11;;;;;;;4.80;0.65;;;;;;;;;;5058008;28;20209;-72
2024/03/16 13:33:37;;;;;;;2.72;0.60;;;;;;;;;;5069375;28;20191;-72
2024/03/16 13:36:03;;;;;;;4.43;0.80;;;;;;;;;;5061835;28;20544;-72
2024/03/16 13:38:28;;;;;;;2.97;0.65;;;;;;;;;;5068163;28;20216;-71
2024/03/16 13:40:54;;;;;;;4.78;0.85;;;;;;;;;;5053465;28;20208;-71
2024/03/16 13:43:20;;;;;;;3.30;0.60;;;;;;;;;;5057329;28;20193;-72
2024/03/16 13:45:46;;;;;;;3.70;0.77;;;;;;;;;;5058752;28;20213;-71
2024/03/16 13:48:12;;;;;;;3.85;1.00;;;;;;;;;;5077886;28;20199;-72
2024/03/16 13:50:40;;;;;;;4.65;0.85;;;;;;;;;;5050175;28;20189;-72
2024/03/16 13:53:06;;;;;;;2.45;0.50;;;;;;;;;;5054145;28;20699;-72
2024/03/16 13:55:32;;;;;;;5.15;0.65;;;;;;;;;;5053954;28;20196;-72
2024/03/16 13:57:58;;;;;;;6.57;0.90;;;;;;;;;;5058111;28;20579;-71
2024/03/16 14:00:25;;;;;;;4.13;0.52;;;;;;;;;;5067847;28;20718;-71
2024/03/16 14:02:51;;;;;;;2.42;0.70;;;;;;;;;;5068018;28;20272;-70
2024/03/16 14:05:18;;;;;;;4.70;0.70;;;;;;;;;;5061629;28;20276;-72
2024/03/16 14:07:44;;;;;;;4.95;0.70;;;;;;;;;;5061437;28;20188;-72
2024/03/16 14:10:10;;;;;;;2.72;0.57;;;;;;;;;;5069216;28;20199;-72
2024/03/16 14:12:35;;;;;;;5.00;0.70;;;;;;;;;;5059866;28;20209;-72
2024/03/16 14:15:03;;;;;;;3.03;0.60;;;;;;;;;;5069815;28;20290;-73
2024/03/16 14:17:29;;;;;;;5.63;1.23;;;;;;;;;;5066559;28;20849;-72
2024/03/16 14:19:54;;;;;;;2.22;0.52;;;;;;;;;;5067880;28;20227;-72
2024/03/16 14:22:25;;;;;;;4.78;1.00;;;;;;;;;;5072465;28;20188;-72
2024/03/16 14:24:51;;;;;;;5.80;1.17;;;;;;;;;;5068451;28;20636;-72
2024/03/16 14:27:17;;;;;;;3.53;0.80;;;;;;;;;;5074607;28;20275;-72
2024/03/16 14:29:42;;;;;;;4.35;0.77;;;;;;;;;;5072571;28;20199;-72
2024/03/16 14:32:08;;;;;;;7.10;1.52;;;;;;;;;;5052712;28;20292;-73